Accueil
METAR-TAF:

METAR-TAF

Aéroports :

Erzincan, Turquie

latitude: 39-44N, longitude: 039-30E, altitude: 1156 m

Observation

Le bulletin a été fait il y a 1 heure et 7 minutes, à 04:50 UTC
Vent 22 kt de est
Température 4°C
Humidité 75%
Pression 1006 hPa
Visibilité: 7000 m
Nuages fragmentés à une hauteur de 3300 ft
Ciel couvert à une hauteur de 7000 ft
pluie faible, neige

METAR: LTCD 160450Z 08022KT 7000 -RASN BKN033 OVC070 04/00 Q1006 NOSIG

Heure: 08:57 (05:57 UTC)

Prévision

Le bulletin a été fait il y a 1 heure et 17 minutes, à 04:40 UTC
Prévision valable du 16 à 06 UTC au 16 à 15 UTC
Vent 23 kt de est
Visibilité 10 km ou plus
Nuages fragmentés à une hauteur de 3300 ft
Ciel couvert à une hauteur de 7000 ft
pluie faible, neige

TAF: LTCD 160440Z 1606/1615 08023KT 9999 -RASN BKN033 OVC070

Observations et prévisions météorologiques de plus de 4000 aéroports (messages METAR et TAF).

Les stations disponibles sont représentées par des disques jaunes et rouges sur la carte.

Passer la souris dessus pour voir le nom de la station.

Cliquer dessus pour voir les observations et prévisions météorologiques.

Pour changer de carte: cliquez sur les boutons verts avec une croix noire pour zoomer, sur le bouton vert avec un tiret pour effectuer un zoom arrière, ou sur les flèches vertes pour les cartes adjacentes.


METAR-TAF: